Terminal Aerodrome Forecast
Issued by NWS Jackson, KY

Home | Current Version | Previous Version | Text Only | Print | Product List | Glossary On
Versions: 1 2 3 4 5 6 7 8 9 10 11 12 13 14
731
FTUS43 KJKL 261149
TAFLOZ
TAF
KLOZ 261149Z 2612/2712 16006KT P6SM VCSH OVC050
      TEMPO 2612/2615 OVC025
     FM261500 20010G20KT P6SM VCSH BKN035
     FM270000 20005KT P6SM BKN035=

USA.gov is the U.S. government's official web portal to all federal, state and local government web resources and services.